sensor_id;sensor_type;location;lat;lon;timestamp;temperature;humidity
28654;DHT22;24320;56.980;24.336;2023-07-22T00:01:42;9.40;99.90
28654;DHT22;24320;56.980;24.336;2023-07-22T00:04:09;9.40;99.90
28654;DHT22;24320;56.980;24.336;2023-07-22T00:06:36;9.40;99.90
28654;DHT22;24320;56.980;24.336;2023-07-22T00:09:03;9.40;99.90
28654;DHT22;24320;56.980;24.336;2023-07-22T00:11:30;9.40;99.90
28654;DHT22;24320;56.980;24.336;2023-07-22T00:13:57;9.40;99.90
28654;DHT22;24320;56.980;24.336;2023-07-22T00:16:24;9.30;99.90
28654;DHT22;24320;56.980;24.336;2023-07-22T00:18:52;9.40;99.90
28654;DHT22;24320;56.980;24.336;2023-07-22T00:21:20;9.40;99.90
28654;DHT22;24320;56.980;24.336;2023-07-22T00:23:47;9.40;99.90
28654;DHT22;24320;56.980;24.336;2023-07-22T00:26:14;9.40;99.90
28654;DHT22;24320;56.980;24.336;2023-07-22T00:28:41;9.40;99.90
28654;DHT22;24320;56.980;24.336;2023-07-22T00:31:10;9.40;99.90
28654;DHT22;24320;56.980;24.336;2023-07-22T00:33:37;9.40;99.90
28654;DHT22;24320;56.980;24.336;2023-07-22T00:36:04;9.30;99.90
28654;DHT22;24320;56.980;24.336;2023-07-22T00:38:31;9.30;99.90
28654;DHT22;24320;56.980;24.336;2023-07-22T00:40:58;9.30;99.90
28654;DHT22;24320;56.980;24.336;2023-07-22T00:43:25;9.30;99.90
28654;DHT22;24320;56.980;24.336;2023-07-22T00:45:53;9.20;99.90
28654;DHT22;24320;56.980;24.336;2023-07-22T00:48:20;9.20;99.90
28654;DHT22;24320;56.980;24.336;2023-07-22T00:50:47;9.20;99.90
28654;DHT22;24320;56.980;24.336;2023-07-22T00:53:14;9.10;99.90
28654;DHT22;24320;56.980;24.336;2023-07-22T00:55:41;9.10;99.90
28654;DHT22;24320;56.980;24.336;2023-07-22T00:58:09;9.10;99.90
28654;DHT22;24320;56.980;24.336;2023-07-22T01:00:36;9.10;99.90
28654;DHT22;24320;56.980;24.336;2023-07-22T01:03:04;9.10;99.90
28654;DHT22;24320;56.980;24.336;2023-07-22T01:05:31;9.00;99.90
28654;DHT22;24320;56.980;24.336;2023-07-22T01:07:58;9.00;99.90
28654;DHT22;24320;56.980;24.336;2023-07-22T01:10:25;9.00;99.90
28654;DHT22;24320;56.980;24.336;2023-07-22T01:12:52;9.00;99.90
28654;DHT22;24320;56.980;24.336;2023-07-22T01:15:19;9.00;99.90
28654;DHT22;24320;56.980;24.336;2023-07-22T01:17:47;9.00;99.90
28654;DHT22;24320;56.980;24.336;2023-07-22T01:20:15;8.90;99.90
28654;DHT22;24320;56.980;24.336;2023-07-22T01:22:52;9.00;99.90
28654;DHT22;24320;56.980;24.336;2023-07-22T01:25:22;9.00;99.90
28654;DHT22;24320;56.980;24.336;2023-07-22T01:27:53;9.00;99.90
28654;DHT22;24320;56.980;24.336;2023-07-22T01:30:20;9.00;99.90
28654;DHT22;24320;56.980;24.336;2023-07-22T01:32:47;8.90;99.90
28654;DHT22;24320;56.980;24.336;2023-07-22T01:35:14;8.90;99.90
28654;DHT22;24320;56.980;24.336;2023-07-22T01:37:41;8.90;99.90
28654;DHT22;24320;56.980;24.336;2023-07-22T01:40:09;8.90;99.90
28654;DHT22;24320;56.980;24.336;2023-07-22T01:42:40;8.90;99.90
28654;DHT22;24320;56.980;24.336;2023-07-22T01:45:08;8.90;99.90
28654;DHT22;24320;56.980;24.336;2023-07-22T01:47:35;8.90;99.90
28654;DHT22;24320;56.980;24.336;2023-07-22T01:50:04;8.90;99.90
28654;DHT22;24320;56.980;24.336;2023-07-22T01:52:35;8.90;99.90
28654;DHT22;24320;56.980;24.336;2023-07-22T01:55:02;8.90;99.90
28654;DHT22;24320;56.980;24.336;2023-07-22T01:57:32;8.90;99.90
28654;DHT22;24320;56.980;24.336;2023-07-22T02:00:00;8.80;99.90
28654;DHT22;24320;56.980;24.336;2023-07-22T02:02:27;8.80;99.90
28654;DHT22;24320;56.980;24.336;2023-07-22T02:04:54;8.80;99.90
28654;DHT22;24320;56.980;24.336;2023-07-22T02:07:21;8.90;99.90
28654;DHT22;24320;56.980;24.336;2023-07-22T02:09:48;8.90;99.90
28654;DHT22;24320;56.980;24.336;2023-07-22T02:12:18;8.90;99.90
28654;DHT22;24320;56.980;24.336;2023-07-22T02:14:45;8.90;99.90
28654;DHT22;24320;56.980;24.336;2023-07-22T02:17:12;8.90;99.90
28654;DHT22;24320;56.980;24.336;2023-07-22T02:19:39;9.00;99.90
28654;DHT22;24320;56.980;24.336;2023-07-22T02:22:07;9.00;99.90
28654;DHT22;24320;56.980;24.336;2023-07-22T02:24:34;9.00;99.90
28654;DHT22;24320;56.980;24.336;2023-07-22T02:27:01;9.00;99.90
28654;DHT22;24320;56.980;24.336;2023-07-22T02:29:28;9.10;99.90
28654;DHT22;24320;56.980;24.336;2023-07-22T02:31:55;9.10;99.90
28654;DHT22;24320;56.980;24.336;2023-07-22T02:34:22;9.20;99.90
28654;DHT22;24320;56.980;24.336;2023-07-22T02:36:49;9.20;99.90
28654;DHT22;24320;56.980;24.336;2023-07-22T02:39:16;9.30;99.90
28654;DHT22;24320;56.980;24.336;2023-07-22T02:41:43;9.40;99.90
28654;DHT22;24320;56.980;24.336;2023-07-22T02:44:10;9.50;99.90
28654;DHT22;24320;56.980;24.336;2023-07-22T02:46:39;9.60;99.90
28654;DHT22;24320;56.980;24.336;2023-07-22T02:49:06;9.70;99.90
28654;DHT22;24320;56.980;24.336;2023-07-22T02:51:33;9.90;99.90
28654;DHT22;24320;56.980;24.336;2023-07-22T02:54:00;10.20;99.90
28654;DHT22;24320;56.980;24.336;2023-07-22T02:56:27;10.50;99.90
28654;DHT22;24320;56.980;24.336;2023-07-22T02:58:55;10.80;99.90
28654;DHT22;24320;56.980;24.336;2023-07-22T03:01:22;11.00;99.90
28654;DHT22;24320;56.980;24.336;2023-07-22T03:03:50;11.30;99.90
28654;DHT22;24320;56.980;24.336;2023-07-22T03:06:17;11.70;99.90
28654;DHT22;24320;56.980;24.336;2023-07-22T03:08:44;12.40;99.90
28654;DHT22;24320;56.980;24.336;2023-07-22T03:11:11;13.20;99.90
28654;DHT22;24320;56.980;24.336;2023-07-22T03:13:38;14.30;99.90
28654;DHT22;24320;56.980;24.336;2023-07-22T03:16:05;15.40;99.90
28654;DHT22;24320;56.980;24.336;2023-07-22T03:18:32;16.40;99.90
28654;DHT22;24320;56.980;24.336;2023-07-22T03:20:59;17.30;99.90
28654;DHT22;24320;56.980;24.336;2023-07-22T03:23:26;17.90;99.90
28654;DHT22;24320;56.980;24.336;2023-07-22T03:25:53;18.50;99.90
28654;DHT22;24320;56.980;24.336;2023-07-22T03:28:20;18.80;99.90
28654;DHT22;24320;56.980;24.336;2023-07-22T03:30:47;18.70;99.90
28654;DHT22;24320;56.980;24.336;2023-07-22T03:33:14;18.70;99.90
28654;DHT22;24320;56.980;24.336;2023-07-22T03:35:41;18.50;99.90
28654;DHT22;24320;56.980;24.336;2023-07-22T03:38:08;17.90;99.90
28654;DHT22;24320;56.980;24.336;2023-07-22T03:40:35;17.40;99.90
28654;DHT22;24320;56.980;24.336;2023-07-22T03:43:02;16.90;99.90
28654;DHT22;24320;56.980;24.336;2023-07-22T03:45:29;16.50;99.90
28654;DHT22;24320;56.980;24.336;2023-07-22T03:47:58;16.20;99.90
28654;DHT22;24320;56.980;24.336;2023-07-22T03:50:26;16.20;99.90
28654;DHT22;24320;56.980;24.336;2023-07-22T03:52:53;16.50;99.90
28654;DHT22;24320;56.980;24.336;2023-07-22T03:55:20;17.40;99.90
28654;DHT22;24320;56.980;24.336;2023-07-22T03:57:47;18.30;99.90
28654;DHT22;24320;56.980;24.336;2023-07-22T04:00:14;18.90;99.90
28654;DHT22;24320;56.980;24.336;2023-07-22T04:02:44;19.30;99.90
28654;DHT22;24320;56.980;24.336;2023-07-22T04:05:11;19.10;99.90
28654;DHT22;24320;56.980;24.336;2023-07-22T04:07:39;18.80;99.90
28654;DHT22;24320;56.980;24.336;2023-07-22T04:10:06;18.40;99.90
28654;DHT22;24320;56.980;24.336;2023-07-22T04:12:33;17.80;99.90
28654;DHT22;24320;56.980;24.336;2023-07-22T04:15:01;17.30;99.90
28654;DHT22;24320;56.980;24.336;2023-07-22T04:17:28;16.80;99.90
28654;DHT22;24320;56.980;24.336;2023-07-22T04:19:55;16.30;99.90
28654;DHT22;24320;56.980;24.336;2023-07-22T04:22:23;15.90;99.90
28654;DHT22;24320;56.980;24.336;2023-07-22T04:24:50;15.90;99.90
28654;DHT22;24320;56.980;24.336;2023-07-22T04:27:17;16.40;99.90
28654;DHT22;24320;56.980;24.336;2023-07-22T04:29:44;17.10;99.90
28654;DHT22;24320;56.980;24.336;2023-07-22T04:32:11;18.00;99.90
28654;DHT22;24320;56.980;24.336;2023-07-22T04:34:38;18.90;99.90
28654;DHT22;24320;56.980;24.336;2023-07-22T04:37:06;19.50;99.90
28654;DHT22;24320;56.980;24.336;2023-07-22T04:39:33;20.00;99.90
28654;DHT22;24320;56.980;24.336;2023-07-22T04:42:01;20.60;99.90
28654;DHT22;24320;56.980;24.336;2023-07-22T04:44:28;20.90;99.90
28654;DHT22;24320;56.980;24.336;2023-07-22T04:46:55;21.20;99.90
28654;DHT22;24320;56.980;24.336;2023-07-22T04:49:22;21.50;99.90
28654;DHT22;24320;56.980;24.336;2023-07-22T04:51:49;21.70;99.90
28654;DHT22;24320;56.980;24.336;2023-07-22T04:54:17;22.00;99.90
28654;DHT22;24320;56.980;24.336;2023-07-22T04:56:45;22.10;99.90
28654;DHT22;24320;56.980;24.336;2023-07-22T04:59:13;22.20;99.90
28654;DHT22;24320;56.980;24.336;2023-07-22T05:01:42;22.30;99.90
28654;DHT22;24320;56.980;24.336;2023-07-22T05:04:10;22.40;99.90
28654;DHT22;24320;56.980;24.336;2023-07-22T05:06:37;22.60;99.90
28654;DHT22;24320;56.980;24.336;2023-07-22T05:09:04;22.50;99.90
28654;DHT22;24320;56.980;24.336;2023-07-22T05:11:31;22.70;99.90
28654;DHT22;24320;56.980;24.336;2023-07-22T05:13:58;23.00;99.90
28654;DHT22;24320;56.980;24.336;2023-07-22T05:16:25;23.30;99.90
28654;DHT22;24320;56.980;24.336;2023-07-22T05:18:53;23.60;99.90
28654;DHT22;24320;56.980;24.336;2023-07-22T05:21:20;23.90;99.90
28654;DHT22;24320;56.980;24.336;2023-07-22T05:23:47;23.90;99.90
28654;DHT22;24320;56.980;24.336;2023-07-22T05:26:14;23.70;99.90
28654;DHT22;24320;56.980;24.336;2023-07-22T05:28:41;23.70;99.90
28654;DHT22;24320;56.980;24.336;2023-07-22T05:31:08;24.00;99.90
28654;DHT22;24320;56.980;24.336;2023-07-22T05:33:35;24.30;98.60
28654;DHT22;24320;56.980;24.336;2023-07-22T05:36:04;24.40;98.70
28654;DHT22;24320;56.980;24.336;2023-07-22T05:38:31;24.90;98.00
28654;DHT22;24320;56.980;24.336;2023-07-22T05:40:58;25.00;96.80
28654;DHT22;24320;56.980;24.336;2023-07-22T05:43:25;25.20;96.40
28654;DHT22;24320;56.980;24.336;2023-07-22T05:45:52;25.30;95.70
28654;DHT22;24320;56.980;24.336;2023-07-22T05:48:19;25.30;96.30
28654;DHT22;24320;56.980;24.336;2023-07-22T05:50:48;25.30;96.60
28654;DHT22;24320;56.980;24.336;2023-07-22T05:53:16;25.60;95.90
28654;DHT22;24320;56.980;24.336;2023-07-22T05:55:43;25.80;95.30
28654;DHT22;24320;56.980;24.336;2023-07-22T05:58:17;26.00;94.40
28654;DHT22;24320;56.980;24.336;2023-07-22T06:00:45;26.10;95.10
28654;DHT22;24320;56.980;24.336;2023-07-22T06:03:13;26.00;95.00
28654;DHT22;24320;56.980;24.336;2023-07-22T06:05:40;26.00;94.80
28654;DHT22;24320;56.980;24.336;2023-07-22T06:08:07;26.00;94.70
28654;DHT22;24320;56.980;24.336;2023-07-22T06:10:34;26.10;94.80
28654;DHT22;24320;56.980;24.336;2023-07-22T06:13:01;26.20;94.30
28654;DHT22;24320;56.980;24.336;2023-07-22T06:15:34;26.20;94.00
28654;DHT22;24320;56.980;24.336;2023-07-22T06:18:02;26.40;94.40
28654;DHT22;24320;56.980;24.336;2023-07-22T06:20:29;26.40;94.10
28654;DHT22;24320;56.980;24.336;2023-07-22T06:22:56;26.50;92.20
28654;DHT22;24320;56.980;24.336;2023-07-22T06:25:24;26.20;93.50
28654;DHT22;24320;56.980;24.336;2023-07-22T06:27:51;26.00;93.70
28654;DHT22;24320;56.980;24.336;2023-07-22T06:30:21;25.80;94.10
28654;DHT22;24320;56.980;24.336;2023-07-22T06:35:28;25.40;93.50
28654;DHT22;24320;56.980;24.336;2023-07-22T06:37:55;25.20;93.80
28654;DHT22;24320;56.980;24.336;2023-07-22T06:40:22;25.10;94.00
28654;DHT22;24320;56.980;24.336;2023-07-22T06:42:49;25.10;94.00
28654;DHT22;24320;56.980;24.336;2023-07-22T06:45:16;25.40;95.00
28654;DHT22;24320;56.980;24.336;2023-07-22T06:47:43;25.60;94.50
28654;DHT22;24320;56.980;24.336;2023-07-22T06:50:10;25.60;92.50
28654;DHT22;24320;56.980;24.336;2023-07-22T06:52:37;25.40;92.50
28654;DHT22;24320;56.980;24.336;2023-07-22T06:55:05;25.10;95.10
28654;DHT22;24320;56.980;24.336;2023-07-22T06:57:33;25.30;95.40
28654;DHT22;24320;56.980;24.336;2023-07-22T07:00:00;25.60;93.40
28654;DHT22;24320;56.980;24.336;2023-07-22T07:02:27;25.90;93.10
28654;DHT22;24320;56.980;24.336;2023-07-22T07:04:54;25.70;91.20
28654;DHT22;24320;56.980;24.336;2023-07-22T07:07:21;25.20;92.20
28654;DHT22;24320;56.980;24.336;2023-07-22T07:09:48;25.00;93.40
28654;DHT22;24320;56.980;24.336;2023-07-22T07:12:15;25.00;92.50
28654;DHT22;24320;56.980;24.336;2023-07-22T07:14:42;24.70;92.00
28654;DHT22;24320;56.980;24.336;2023-07-22T07:17:10;24.30;92.80
28654;DHT22;24320;56.980;24.336;2023-07-22T07:19:37;23.80;93.80
28654;DHT22;24320;56.980;24.336;2023-07-22T07:22:04;23.20;94.30
28654;DHT22;24320;56.980;24.336;2023-07-22T07:24:31;22.80;95.00
28654;DHT22;24320;56.980;24.336;2023-07-22T07:26:58;22.60;96.00
28654;DHT22;24320;56.980;24.336;2023-07-22T07:29:25;22.40;96.20
28654;DHT22;24320;56.980;24.336;2023-07-22T07:32:12;22.50;97.10
28654;DHT22;24320;56.980;24.336;2023-07-22T07:34:39;23.10;99.00
28654;DHT22;24320;56.980;24.336;2023-07-22T07:37:06;23.70;97.40
28654;DHT22;24320;56.980;24.336;2023-07-22T07:39:33;24.00;95.10
28654;DHT22;24320;56.980;24.336;2023-07-22T07:42:01;23.90;96.40
28654;DHT22;24320;56.980;24.336;2023-07-22T07:44:28;24.00;96.50
28654;DHT22;24320;56.980;24.336;2023-07-22T07:46:55;24.40;96.50
28654;DHT22;24320;56.980;24.336;2023-07-22T07:49:22;24.70;94.40
28654;DHT22;24320;56.980;24.336;2023-07-22T07:51:49;24.60;94.50
28654;DHT22;24320;56.980;24.336;2023-07-22T07:54:16;24.60;94.80
28654;DHT22;24320;56.980;24.336;2023-07-22T07:56:43;24.60;94.70
28654;DHT22;24320;56.980;24.336;2023-07-22T07:59:10;24.60;93.80
28654;DHT22;24320;56.980;24.336;2023-07-22T08:01:37;24.70;93.90
28654;DHT22;24320;56.980;24.336;2023-07-22T08:04:08;24.70;92.90
28654;DHT22;24320;56.980;24.336;2023-07-22T08:06:35;24.30;93.80
28654;DHT22;24320;56.980;24.336;2023-07-22T08:09:04;23.90;94.70
28654;DHT22;24320;56.980;24.336;2023-07-22T08:11:34;23.80;96.70
28654;DHT22;24320;56.980;24.336;2023-07-22T08:14:01;24.20;97.20
28654;DHT22;24320;56.980;24.336;2023-07-22T08:16:28;24.50;94.80
28654;DHT22;24320;56.980;24.336;2023-07-22T08:18:56;24.70;94.30
28654;DHT22;24320;56.980;24.336;2023-07-22T08:21:23;24.90;94.60
28654;DHT22;24320;56.980;24.336;2023-07-22T08:23:50;25.20;94.20
28654;DHT22;24320;56.980;24.336;2023-07-22T08:26:17;25.30;93.40
28654;DHT22;24320;56.980;24.336;2023-07-22T08:28:47;25.10;92.90
28654;DHT22;24320;56.980;24.336;2023-07-22T08:31:15;24.90;92.80
28654;DHT22;24320;56.980;24.336;2023-07-22T08:33:42;25.00;94.70
28654;DHT22;24320;56.980;24.336;2023-07-22T08:36:09;25.30;93.50
28654;DHT22;24320;56.980;24.336;2023-07-22T08:38:36;25.50;93.40
28654;DHT22;24320;56.980;24.336;2023-07-22T08:41:03;25.50;91.70
28654;DHT22;24320;56.980;24.336;2023-07-22T08:43:31;25.50;91.50
28654;DHT22;24320;56.980;24.336;2023-07-22T08:46:01;25.40;91.30
28654;DHT22;24320;56.980;24.336;2023-07-22T08:48:33;25.10;91.70
28654;DHT22;24320;56.980;24.336;2023-07-22T08:51:10;24.80;91.80
28654;DHT22;24320;56.980;24.336;2023-07-22T08:53:39;24.50;93.20
28654;DHT22;24320;56.980;24.336;2023-07-22T08:56:07;24.40;92.30
28654;DHT22;24320;56.980;24.336;2023-07-22T08:58:34;24.30;93.40
28654;DHT22;24320;56.980;24.336;2023-07-22T09:01:03;24.30;93.70
28654;DHT22;24320;56.980;24.336;2023-07-22T09:03:30;24.30;94.00
28654;DHT22;24320;56.980;24.336;2023-07-22T09:05:58;24.30;93.80
28654;DHT22;24320;56.980;24.336;2023-07-22T09:08:25;24.00;94.10
28654;DHT22;24320;56.980;24.336;2023-07-22T09:10:53;23.90;94.20
28654;DHT22;24320;56.980;24.336;2023-07-22T09:13:21;23.70;92.90
28654;DHT22;24320;56.980;24.336;2023-07-22T09:15:49;23.80;94.50
28654;DHT22;24320;56.980;24.336;2023-07-22T09:18:17;24.00;96.60
28654;DHT22;24320;56.980;24.336;2023-07-22T09:20:44;24.40;95.20
28654;DHT22;24320;56.980;24.336;2023-07-22T09:23:12;24.50;93.40
28654;DHT22;24320;56.980;24.336;2023-07-22T09:25:41;24.40;95.60
28654;DHT22;24320;56.980;24.336;2023-07-22T09:28:09;24.30;95.10
28654;DHT22;24320;56.980;24.336;2023-07-22T09:30:38;24.10;95.80
28654;DHT22;24320;56.980;24.336;2023-07-22T09:33:19;24.00;97.20
28654;DHT22;24320;56.980;24.336;2023-07-22T09:35:48;23.90;97.30
28654;DHT22;24320;56.980;24.336;2023-07-22T09:38:23;23.80;96.70
28654;DHT22;24320;56.980;24.336;2023-07-22T09:40:52;23.60;96.10
28654;DHT22;24320;56.980;24.336;2023-07-22T09:43:20;23.40;96.60
28654;DHT22;24320;56.980;24.336;2023-07-22T09:45:48;23.30;96.40
28654;DHT22;24320;56.980;24.336;2023-07-22T09:48:15;23.20;98.00
28654;DHT22;24320;56.980;24.336;2023-07-22T09:50:43;23.40;99.90
28654;DHT22;24320;56.980;24.336;2023-07-22T09:53:15;23.90;99.50
28654;DHT22;24320;56.980;24.336;2023-07-22T09:55:43;24.30;99.10
28654;DHT22;24320;56.980;24.336;2023-07-22T09:58:11;24.60;93.60
28654;DHT22;24320;56.980;24.336;2023-07-22T10:00:45;24.40;92.20
28654;DHT22;24320;56.980;24.336;2023-07-22T10:03:15;24.20;95.50
28654;DHT22;24320;56.980;24.336;2023-07-22T10:05:45;24.10;95.90
28654;DHT22;24320;56.980;24.336;2023-07-22T10:08:16;23.90;96.20
28654;DHT22;24320;56.980;24.336;2023-07-22T10:10:45;23.80;96.50
28654;DHT22;24320;56.980;24.336;2023-07-22T10:13:12;23.70;97.50
28654;DHT22;24320;56.980;24.336;2023-07-22T10:15:39;23.50;96.80
28654;DHT22;24320;56.980;24.336;2023-07-22T10:18:06;23.20;97.40
28654;DHT22;24320;56.980;24.336;2023-07-22T10:20:34;22.90;96.80
28654;DHT22;24320;56.980;24.336;2023-07-22T10:23:04;22.70;98.00
28654;DHT22;24320;56.980;24.336;2023-07-22T10:25:35;22.60;97.50
28654;DHT22;24320;56.980;24.336;2023-07-22T10:28:06;22.70;99.30
28654;DHT22;24320;56.980;24.336;2023-07-22T10:30:36;23.00;98.80
28654;DHT22;24320;56.980;24.336;2023-07-22T10:33:06;23.00;98.70
28654;DHT22;24320;56.980;24.336;2023-07-22T10:38:10;22.70;98.50
28654;DHT22;24320;56.980;24.336;2023-07-22T10:40:52;22.50;99.90
28654;DHT22;24320;56.980;24.336;2023-07-22T10:43:33;22.30;99.60
28654;DHT22;24320;56.980;24.336;2023-07-22T10:46:11;22.50;99.90
28654;DHT22;24320;56.980;24.336;2023-07-22T10:48:41;22.70;99.90
28654;DHT22;24320;56.980;24.336;2023-07-22T10:51:13;22.70;99.60
28654;DHT22;24320;56.980;24.336;2023-07-22T10:53:46;22.50;99.90
28654;DHT22;24320;56.980;24.336;2023-07-22T10:56:21;22.50;99.90
28654;DHT22;24320;56.980;24.336;2023-07-22T11:11:44;21.50;99.90
28654;DHT22;24320;56.980;24.336;2023-07-22T11:14:20;21.50;99.90
28654;DHT22;24320;56.980;24.336;2023-07-22T11:16:48;21.60;99.90
28654;DHT22;24320;56.980;24.336;2023-07-22T11:19:17;21.60;99.90
28654;DHT22;24320;56.980;24.336;2023-07-22T11:21:46;21.50;99.90
28654;DHT22;24320;56.980;24.336;2023-07-22T11:24:14;21.50;99.90
28654;DHT22;24320;56.980;24.336;2023-07-22T11:26:42;21.40;99.90
28654;DHT22;24320;56.980;24.336;2023-07-22T11:29:13;21.20;99.90
28654;DHT22;24320;56.980;24.336;2023-07-22T11:31:43;21.10;99.90
28654;DHT22;24320;56.980;24.336;2023-07-22T11:34:12;21.10;99.90
28654;DHT22;24320;56.980;24.336;2023-07-22T11:36:40;21.20;99.90
28654;DHT22;24320;56.980;24.336;2023-07-22T11:39:09;21.10;99.90
28654;DHT22;24320;56.980;24.336;2023-07-22T11:41:37;21.10;99.90
28654;DHT22;24320;56.980;24.336;2023-07-22T11:44:05;21.20;99.90
28654;DHT22;24320;56.980;24.336;2023-07-22T11:46:40;21.10;99.90
28654;DHT22;24320;56.980;24.336;2023-07-22T11:49:13;21.10;99.90
28654;DHT22;24320;56.980;24.336;2023-07-22T11:51:42;21.20;99.90
28654;DHT22;24320;56.980;24.336;2023-07-22T11:54:10;21.10;99.90
28654;DHT22;24320;56.980;24.336;2023-07-22T11:56:39;21.00;99.90
28654;DHT22;24320;56.980;24.336;2023-07-22T11:59:06;21.00;99.90
28654;DHT22;24320;56.980;24.336;2023-07-22T12:01:35;21.10;99.90
28654;DHT22;24320;56.980;24.336;2023-07-22T12:04:02;21.20;99.90
28654;DHT22;24320;56.980;24.336;2023-07-22T12:06:35;21.20;99.90
28654;DHT22;24320;56.980;24.336;2023-07-22T12:09:03;21.20;99.90
28654;DHT22;24320;56.980;24.336;2023-07-22T12:11:44;21.20;99.90
28654;DHT22;24320;56.980;24.336;2023-07-22T12:14:12;21.00;99.90
28654;DHT22;24320;56.980;24.336;2023-07-22T12:16:41;20.90;99.90
28654;DHT22;24320;56.980;24.336;2023-07-22T12:19:09;20.90;99.90
28654;DHT22;24320;56.980;24.336;2023-07-22T12:21:36;20.90;99.90
28654;DHT22;24320;56.980;24.336;2023-07-22T12:24:03;20.90;99.90
28654;DHT22;24320;56.980;24.336;2023-07-22T12:26:33;20.80;99.90
28654;DHT22;24320;56.980;24.336;2023-07-22T12:29:00;20.90;99.90
28654;DHT22;24320;56.980;24.336;2023-07-22T12:31:27;20.90;99.90
28654;DHT22;24320;56.980;24.336;2023-07-22T12:33:54;20.90;99.90
28654;DHT22;24320;56.980;24.336;2023-07-22T12:36:21;20.80;99.90
28654;DHT22;24320;56.980;24.336;2023-07-22T12:38:48;20.70;99.90
28654;DHT22;24320;56.980;24.336;2023-07-22T12:41:16;20.60;99.90
28654;DHT22;24320;56.980;24.336;2023-07-22T12:43:43;20.40;99.90
28654;DHT22;24320;56.980;24.336;2023-07-22T12:46:11;20.40;99.90
28654;DHT22;24320;56.980;24.336;2023-07-22T12:48:38;20.30;99.90
28654;DHT22;24320;56.980;24.336;2023-07-22T12:51:05;20.30;99.90
28654;DHT22;24320;56.980;24.336;2023-07-22T12:53:32;20.30;99.90
28654;DHT22;24320;56.980;24.336;2023-07-22T12:55:59;20.40;99.90
28654;DHT22;24320;56.980;24.336;2023-07-22T12:58:26;20.50;99.90
28654;DHT22;24320;56.980;24.336;2023-07-22T13:00:53;20.60;99.90
28654;DHT22;24320;56.980;24.336;2023-07-22T13:03:20;20.80;99.90
28654;DHT22;24320;56.980;24.336;2023-07-22T13:05:47;20.90;99.90
28654;DHT22;24320;56.980;24.336;2023-07-22T13:08:15;20.90;99.90
28654;DHT22;24320;56.980;24.336;2023-07-22T13:10:42;21.00;99.90
28654;DHT22;24320;56.980;24.336;2023-07-22T13:13:11;21.00;99.90
28654;DHT22;24320;56.980;24.336;2023-07-22T13:15:38;20.90;99.90
28654;DHT22;24320;56.980;24.336;2023-07-22T13:18:05;20.70;99.90
28654;DHT22;24320;56.980;24.336;2023-07-22T13:20:33;20.40;99.90
28654;DHT22;24320;56.980;24.336;2023-07-22T13:23:00;20.10;99.90
28654;DHT22;24320;56.980;24.336;2023-07-22T13:25:27;19.90;99.90
28654;DHT22;24320;56.980;24.336;2023-07-22T13:27:54;19.70;99.90
28654;DHT22;24320;56.980;24.336;2023-07-22T13:30:21;19.50;99.90
28654;DHT22;24320;56.980;24.336;2023-07-22T13:32:48;19.30;99.90
28654;DHT22;24320;56.980;24.336;2023-07-22T13:35:16;19.30;99.90
28654;DHT22;24320;56.980;24.336;2023-07-22T13:37:43;19.20;99.90
28654;DHT22;24320;56.980;24.336;2023-07-22T13:40:11;19.00;99.90
28654;DHT22;24320;56.980;24.336;2023-07-22T13:42:39;18.80;99.90
28654;DHT22;24320;56.980;24.336;2023-07-22T13:45:07;18.70;99.90
28654;DHT22;24320;56.980;24.336;2023-07-22T13:47:41;18.60;99.90
28654;DHT22;24320;56.980;24.336;2023-07-22T13:50:11;18.40;99.90
28654;DHT22;24320;56.980;24.336;2023-07-22T13:52:38;18.30;99.90
28654;DHT22;24320;56.980;24.336;2023-07-22T13:55:07;18.20;99.90
28654;DHT22;24320;56.980;24.336;2023-07-22T13:57:34;18.10;99.90
28654;DHT22;24320;56.980;24.336;2023-07-22T14:00:02;18.00;99.90
28654;DHT22;24320;56.980;24.336;2023-07-22T14:02:37;17.90;99.90
28654;DHT22;24320;56.980;24.336;2023-07-22T14:05:04;17.90;99.90
28654;DHT22;24320;56.980;24.336;2023-07-22T14:07:31;17.90;99.90
28654;DHT22;24320;56.980;24.336;2023-07-22T14:09:58;18.00;99.90
28654;DHT22;24320;56.980;24.336;2023-07-22T14:12:25;18.10;99.90
28654;DHT22;24320;56.980;24.336;2023-07-22T14:14:52;18.20;99.90
28654;DHT22;24320;56.980;24.336;2023-07-22T14:17:20;18.50;99.90
28654;DHT22;24320;56.980;24.336;2023-07-22T14:19:47;18.60;99.90
28654;DHT22;24320;56.980;24.336;2023-07-22T14:22:14;18.80;99.90
28654;DHT22;24320;56.980;24.336;2023-07-22T14:24:41;18.90;99.90
28654;DHT22;24320;56.980;24.336;2023-07-22T14:27:08;19.00;99.90
28654;DHT22;24320;56.980;24.336;2023-07-22T14:29:35;19.00;99.90
28654;DHT22;24320;56.980;24.336;2023-07-22T14:32:02;19.00;99.90
28654;DHT22;24320;56.980;24.336;2023-07-22T14:34:29;19.00;99.90
28654;DHT22;24320;56.980;24.336;2023-07-22T14:36:56;19.00;99.90
28654;DHT22;24320;56.980;24.336;2023-07-22T14:39:23;19.00;99.90
28654;DHT22;24320;56.980;24.336;2023-07-22T14:41:50;19.00;99.90
28654;DHT22;24320;56.980;24.336;2023-07-22T14:44:18;19.00;99.90
28654;DHT22;24320;56.980;24.336;2023-07-22T14:46:45;19.00;99.90
28654;DHT22;24320;56.980;24.336;2023-07-22T14:49:12;19.10;99.90
28654;DHT22;24320;56.980;24.336;2023-07-22T14:51:39;19.30;99.90
28654;DHT22;24320;56.980;24.336;2023-07-22T14:54:07;19.30;99.90
28654;DHT22;24320;56.980;24.336;2023-07-22T14:56:35;19.20;99.90
28654;DHT22;24320;56.980;24.336;2023-07-22T14:59:02;19.10;99.90
28654;DHT22;24320;56.980;24.336;2023-07-22T15:01:39;19.10;99.90
28654;DHT22;24320;56.980;24.336;2023-07-22T15:04:07;19.20;99.90
28654;DHT22;24320;56.980;24.336;2023-07-22T15:06:35;19.30;99.90
28654;DHT22;24320;56.980;24.336;2023-07-22T15:09:03;19.50;99.90
28654;DHT22;24320;56.980;24.336;2023-07-22T15:11:37;19.60;99.90
28654;DHT22;24320;56.980;24.336;2023-07-22T15:14:04;19.80;99.90
28654;DHT22;24320;56.980;24.336;2023-07-22T15:16:31;20.10;99.90
28654;DHT22;24320;56.980;24.336;2023-07-22T15:18:59;20.50;99.90
28654;DHT22;24320;56.980;24.336;2023-07-22T15:21:26;20.80;99.90
28654;DHT22;24320;56.980;24.336;2023-07-22T15:23:54;21.10;99.90
28654;DHT22;24320;56.980;24.336;2023-07-22T15:26:21;21.30;99.90
28654;DHT22;24320;56.980;24.336;2023-07-22T15:28:48;21.40;99.90
28654;DHT22;24320;56.980;24.336;2023-07-22T15:31:19;21.50;99.90
28654;DHT22;24320;56.980;24.336;2023-07-22T15:33:46;21.50;99.90
28654;DHT22;24320;56.980;24.336;2023-07-22T15:36:13;21.60;99.90
28654;DHT22;24320;56.980;24.336;2023-07-22T15:38:41;21.60;99.90
28654;DHT22;24320;56.980;24.336;2023-07-22T15:41:08;21.60;99.90
28654;DHT22;24320;56.980;24.336;2023-07-22T15:43:36;21.40;99.90